Time;durP1;ratioP1;P1;durP2;ratioP2;P2;SDS_P1;SDS_P2;PMS_P1;PMS_P2;Temp;Humidity;BMP_temperature;BMP_pressure;BME280_temperature;BME280_humidity;BME280_pressure;Samples;Min_cycle;Max_cycle;Signal;HPM_P1;HPM_P2
2022/09/13 00:00:39;;;;;;;34.10;26.15;;;17.60;99.90;;;;;;5003844;28;20042;-83
2022/09/13 00:03:06;;;;;;;28.85;25.80;;;17.30;99.90;;;;;;5000443;28;20097;-83
2022/09/13 00:05:31;;;;;;;30.55;25.58;;;17.40;99.90;;;;;;5005018;28;20046;-84
2022/09/13 00:07:58;;;;;;;32.38;25.92;;;17.30;99.90;;;;;;5006243;28;20050;-84
2022/09/13 00:10:25;;;;;;;30.80;25.00;;;17.60;99.90;;;;;;5006300;28;20503;-84
2022/09/13 00:12:51;;;;;;;37.70;27.35;;;17.30;99.90;;;;;;5004175;28;20061;-84
2022/09/13 00:15:17;;;;;;;33.33;26.60;;;17.20;99.90;;;;;;5003602;28;20424;-87
2022/09/13 00:17:43;;;;;;;34.03;25.35;;;17.70;99.90;;;;;;5002838;28;20037;-83
2022/09/13 00:20:08;;;;;;;36.13;27.55;;;17.30;99.90;;;;;;5005703;28;20124;-84
2022/09/13 00:22:35;;;;;;;33.95;25.85;;;17.20;99.90;;;;;;5004012;28;21455;-84
2022/09/13 00:25:02;;;;;;;32.78;23.08;;;17.30;99.90;;;;;;5004710;28;20128;-84
2022/09/13 00:27:27;;;;;;;25.75;20.45;;;17.40;99.90;;;;;;5003977;28;20080;-84
2022/09/13 00:29:53;;;;;;;23.50;19.85;;;17.50;99.90;;;;;;5004691;28;20525;-83
2022/09/13 00:32:19;;;;;;;25.92;20.02;;;17.20;99.90;;;;;;5003856;28;20404;-84
2022/09/13 00:34:44;;;;;;;25.80;19.52;;;17.20;99.90;;;;;;5004117;28;20129;-83
2022/09/13 00:37:10;;;;;;;21.83;16.90;;;17.40;99.90;;;;;;5001637;28;20038;-83
2022/09/13 00:39:36;;;;;;;25.08;19.08;;;17.30;99.90;;;;;;5004371;28;20385;-81
2022/09/13 00:42:01;;;;;;;23.27;17.25;;;17.30;99.90;;;;;;4982409;28;20030;-84
2022/09/13 00:44:54;;;;;;;25.27;17.58;;;17.30;99.90;;;;;;4997927;28;20077;-84
2022/09/13 00:47:35;;;;;;;18.52;15.02;;;17.50;99.90;;;;;;5000601;28;20413;-84
2022/09/13 00:50:28;;;;;;;19.58;13.90;;;17.60;99.90;;;;;;5020809;28;20481;-84
2022/09/13 00:53:18;;;;;;;18.77;14.60;;;17.40;99.90;;;;;;4999604;28;20084;-89
2022/09/13 00:55:47;;;;;;;18.38;14.75;;;17.20;99.90;;;;;;4991668;28;20038;-84
2022/09/13 00:58:28;;;;;;;17.02;14.27;;;17.20;99.90;;;;;;5004723;28;20409;-85
2022/09/13 01:00:57;;;;;;;18.10;14.95;;;17.40;99.90;;;;;;5008590;28;20046;-84
2022/09/13 01:03:26;;;;;;;19.55;15.07;;;17.20;99.90;;;;;;5007011;28;20041;-84
2022/09/13 01:05:58;;;;;;;16.58;13.35;;;17.10;99.90;;;;;;5008535;28;20037;-82
2022/09/13 01:08:28;;;;;;;16.98;14.25;;;17.20;99.90;;;;;;5001648;28;20046;-84
2022/09/13 01:10:57;;;;;;;17.77;13.60;;;17.10;99.90;;;;;;5009491;28;20042;-84
2022/09/13 01:13:25;;;;;;;14.50;12.30;;;17.40;99.90;;;;;;5005846;28;20046;-85
2022/09/13 01:15:51;;;;;;;16.58;12.63;;;17.10;99.90;;;;;;5005943;28;20184;-83
2022/09/13 01:18:17;;;;;;;15.85;12.93;;;17.30;99.90;;;;;;5006669;28;20038;-85
2022/09/13 01:20:58;;;;;;;14.93;12.77;;;17.40;99.90;;;;;;5005988;28;20049;-84
2022/09/13 01:24:03;;;;;;;15.70;12.77;;;17.40;99.90;;;;;;5001405;28;20125;-83
2022/09/13 01:27:11;;;;;;;15.77;12.18;;;17.60;99.90;;;;;;4985672;28;20058;-84
2022/09/13 01:29:58;;;;;;;16.05;12.88;;;17.10;99.90;;;;;;5000816;28;20424;-84
2022/09/13 01:32:51;;;;;;;17.48;14.13;;;17.50;99.90;;;;;;5002485;28;20136;-84
2022/09/13 01:35:36;;;;;;;17.60;12.38;;;17.50;99.90;;;;;;5016461;28;20049;-86
2022/09/13 01:38:13;;;;;;;15.98;13.55;;;17.50;99.90;;;;;;5002681;28;20483;-83
2022/09/13 01:41:18;;;;;;;17.83;13.13;;;17.40;99.90;;;;;;5001471;28;20057;-84
2022/09/13 01:44:02;;;;;;;19.13;14.40;;;17.10;99.90;;;;;;5003710;28;20053;-83
2022/09/13 01:47:01;;;;;;;18.88;14.20;;;17.30;99.90;;;;;;5001840;28;20053;-86
2022/09/13 01:49:34;;;;;;;17.33;14.07;;;17.50;99.90;;;;;;5003533;28;20046;-84
2022/09/13 01:52:24;;;;;;;20.05;14.50;;;17.30;99.90;;;;;;5000669;28;20046;-83
2022/09/13 01:55:18;;;;;;;17.43;15.20;;;17.20;99.90;;;;;;5003418;28;20157;-84
2022/09/13 01:58:03;;;;;;;19.25;14.00;;;17.40;99.90;;;;;;5000074;28;20366;-85
2022/09/13 02:00:36;;;;;;;19.80;15.20;;;17.20;99.90;;;;;;5002780;28;20041;-84
2022/09/13 02:03:18;;;;;;;16.23;13.68;;;17.10;99.90;;;;;;5004397;28;20423;-84
2022/09/13 02:05:50;;;;;;;18.98;15.77;;;17.10;99.90;;;;;;4998663;28;20041;-83
2022/09/13 02:08:22;;;;;;;19.58;15.13;;;17.50;99.90;;;;;;5003518;28;20037;-85
2022/09/13 02:11:05;;;;;;;18.08;14.32;;;17.50;99.90;;;;;;5002833;28;20049;-84
2022/09/13 02:13:36;;;;;;;18.90;14.73;;;17.00;99.90;;;;;;5004238;28;20042;-85
2022/09/13 02:16:10;;;;;;;20.27;15.93;;;17.50;99.90;;;;;;5003798;28;20045;-83
2022/09/13 02:18:40;;;;;;;19.52;13.10;;;17.30;99.90;;;;;;5003767;28;20136;-84
2022/09/13 02:21:16;;;;;;;21.02;15.38;;;17.00;99.90;;;;;;5002475;28;21650;-85
2022/09/13 02:23:54;;;;;;;25.17;14.98;;;17.00;99.90;;;;;;5007718;28;20534;-85
2022/09/13 02:26:23;;;;;;;18.85;14.30;;;17.50;99.90;;;;;;5005704;28;20038;-85
2022/09/13 02:28:52;;;;;;;18.95;15.82;;;17.00;99.90;;;;;;5006550;28;20041;-84
2022/09/13 02:31:26;;;;;;;17.08;13.85;;;17.30;99.90;;;;;;5006847;28;20104;-84
2022/09/13 02:34:07;;;;;;;17.00;14.60;;;17.30;99.90;;;;;;5005685;28;20485;-85
2022/09/13 02:36:39;;;;;;;21.00;14.75;;;17.60;99.90;;;;;;5005618;28;20108;-84
2022/09/13 02:39:14;;;;;;;20.67;14.35;;;17.30;99.90;;;;;;5023598;28;20459;-84
2022/09/13 02:41:48;;;;;;;18.58;14.25;;;17.20;99.90;;;;;;5004381;28;20104;-84
2022/09/13 02:44:19;;;;;;;18.98;14.68;;;17.40;99.90;;;;;;5004621;28;20042;-83
2022/09/13 02:46:57;;;;;;;19.58;14.70;;;17.30;99.90;;;;;;5005188;28;20777;-83
2022/09/13 02:49:42;;;;;;;20.88;14.50;;;17.10;99.90;;;;;;4988194;28;20125;-84
2022/09/13 02:52:15;;;;;;;23.02;15.70;;;17.50;99.90;;;;;;5006415;28;20133;-84
2022/09/13 02:54:46;;;;;;;17.13;13.68;;;17.10;99.90;;;;;;5008915;28;20048;-85
2022/09/13 02:57:24;;;;;;;19.85;15.10;;;17.60;99.90;;;;;;5005162;28;20046;-85
2022/09/13 02:59:49;;;;;;;24.13;16.40;;;17.20;99.90;;;;;;5002122;28;20382;-84
2022/09/13 03:02:20;;;;;;;19.83;15.82;;;17.70;99.90;;;;;;5003000;28;20187;-84
2022/09/13 03:04:46;;;;;;;19.45;15.93;;;17.70;99.90;;;;;;4990658;28;20562;-83
2022/09/13 03:07:13;;;;;;;22.90;15.90;;;17.60;99.90;;;;;;5006366;28;20050;-83
2022/09/13 03:09:51;;;;;;;23.20;17.33;;;17.20;99.90;;;;;;5008570;28;20042;-85
2022/09/13 03:12:31;;;;;;;18.38;14.18;;;17.70;99.90;;;;;;5004621;28;20065;-85
2022/09/13 03:15:23;;;;;;;15.00;12.02;;;17.20;99.90;;;;;;5020401;28;20088;-85
2022/09/13 03:18:14;;;;;;;12.85;10.48;;;17.20;99.90;;;;;;5002122;28;20117;-83
2022/09/13 03:20:51;;;;;;;8.77;6.10;;;17.40;99.90;;;;;;4988135;28;20129;-76
2022/09/13 03:23:39;;;;;;;6.95;4.65;;;17.80;99.90;;;;;;5006261;28;20404;-85
2022/09/13 03:26:34;;;;;;;6.72;4.60;;;17.20;99.90;;;;;;5006532;28;20034;-84
2022/09/13 03:29:44;;;;;;;5.13;4.00;;;17.70;99.90;;;;;;5007352;28;20041;-85
2022/09/13 03:32:18;;;;;;;7.75;4.03;;;17.20;99.90;;;;;;4947401;28;20488;-75
2022/09/13 03:34:44;;;;;;;6.95;5.00;;;17.30;99.90;;;;;;4946986;28;20042;-83
2022/09/13 03:37:21;;;;;;;4.88;3.58;;;17.30;99.90;;;;;;4983078;28;20046;-85
2022/09/13 03:40:02;;;;;;;7.30;3.55;;;17.10;99.90;;;;;;5005605;28;20045;-84
2022/09/13 03:42:34;;;;;;;3.95;2.85;;;17.20;99.90;;;;;;5000075;28;20099;-85
2022/09/13 03:45:03;;;;;;;4.57;2.97;;;17.30;99.90;;;;;;5004375;28;20136;-84
2022/09/13 03:47:32;;;;;;;8.45;3.70;;;17.60;99.90;;;;;;5003985;28;20115;-83
2022/09/13 03:49:59;;;;;;;5.68;3.40;;;17.20;99.90;;;;;;5005873;28;20109;-84
2022/09/13 03:52:25;;;;;;;10.95;3.67;;;17.30;99.90;;;;;;5005329;28;20061;-83
2022/09/13 03:54:52;;;;;;;7.78;2.70;;;17.60;99.90;;;;;;5005948;28;20050;-84
2022/09/13 03:57:20;;;;;;;4.25;2.78;;;17.30;99.90;;;;;;5002234;28;20060;-85
2022/09/13 03:59:53;;;;;;;4.55;3.45;;;17.20;99.90;;;;;;5004521;28;20042;-85
2022/09/13 04:02:21;;;;;;;3.03;2.72;;;17.30;99.90;;;;;;5019652;28;20091;-85
2022/09/13 04:04:47;;;;;;;3.58;2.47;;;17.60;99.90;;;;;;5004012;28;20117;-85
2022/09/13 04:07:19;;;;;;;3.97;2.67;;;17.60;99.90;;;;;;5005288;28;20074;-85
2022/09/13 04:09:45;;;;;;;5.55;2.53;;;17.70;99.90;;;;;;5022899;28;20053;-84
2022/09/13 04:12:13;;;;;;;6.20;2.63;;;17.20;99.90;;;;;;5002787;28;20030;-85
2022/09/13 04:14:39;;;;;;;4.45;2.67;;;17.60;99.90;;;;;;5004438;28;20045;-84
2022/09/13 04:17:06;;;;;;;5.45;2.63;;;17.60;99.90;;;;;;5003374;28;20045;-85
2022/09/13 04:19:32;;;;;;;6.55;1.90;;;17.10;99.90;;;;;;5007124;28;20184;-84
2022/09/13 04:21:58;;;;;;;3.47;2.40;;;17.60;99.90;;;;;;5003275;28;20049;-84
2022/09/13 04:24:27;;;;;;;4.43;1.45;;;17.10;99.90;;;;;;4991281;28;20042;-83
2022/09/13 04:26:53;;;;;;;7.32;1.50;;;17.50;99.90;;;;;;4994396;28;20121;-83
2022/09/13 04:29:20;;;;;;;1.35;0.60;;;17.20;99.90;;;;;;5005430;28;20065;-83
2022/09/13 04:31:46;;;;;;;3.63;1.13;;;17.30;99.90;;;;;;5005340;28;20404;-84
2022/09/13 04:34:12;;;;;;;1.70;0.70;;;17.00;99.90;;;;;;5005423;28;20501;-84
2022/09/13 04:36:38;;;;;;;3.35;1.02;;;17.00;99.90;;;;;;5008143;28;20103;-83
2022/09/13 04:39:04;;;;;;;8.70;2.28;;;17.00;99.90;;;;;;5009510;28;20404;-86
2022/09/13 04:41:32;;;;;;;1.95;0.95;;;17.40;99.90;;;;;;5007541;28;20053;-84
2022/09/13 04:43:57;;;;;;;3.08;1.65;;;17.00;99.90;;;;;;5002499;28;20054;-84
2022/09/13 04:46:23;;;;;;;4.57;1.38;;;17.00;99.90;;;;;;5009889;28;20038;-85
2022/09/13 04:48:50;;;;;;;4.03;1.15;;;16.90;99.90;;;;;;5011758;28;20049;-84
2022/09/13 04:51:16;;;;;;;11.10;2.20;;;17.10;99.90;;;;;;5011516;28;20116;-84
2022/09/13 04:53:43;;;;;;;3.22;1.20;;;17.00;99.90;;;;;;4991340;28;20092;-85
2022/09/13 04:56:09;;;;;;;3.72;1.70;;;16.90;99.90;;;;;;5012187;28;20052;-84
2022/09/13 04:58:35;;;;;;;7.70;1.20;;;16.90;99.90;;;;;;5014482;28;20447;-85
2022/09/13 05:01:03;;;;;;;4.88;1.17;;;17.10;99.90;;;;;;5013385;28;20075;-84
2022/09/13 05:03:30;;;;;;;8.63;2.17;;;17.20;99.90;;;;;;5012242;28;20057;-84
2022/09/13 05:06:14;;;;;;;6.95;1.30;;;16.90;99.90;;;;;;5008084;28;20048;-85
2022/09/13 05:08:40;;;;;;;3.63;1.70;;;17.20;99.90;;;;;;5008957;28;20046;-75
2022/09/13 05:11:07;;;;;;;2.95;1.67;;;17.30;99.90;;;;;;5016300;28;20125;-85
2022/09/13 05:13:33;;;;;;;5.15;1.85;;;16.90;99.90;;;;;;5002944;28;20045;-80
2022/09/13 05:16:04;;;;;;;5.72;2.03;;;16.90;99.90;;;;;;5004158;28;20069;-86
2022/09/13 05:18:32;;;;;;;8.25;1.55;;;16.90;99.90;;;;;;5004942;28;20138;-84
2022/09/13 05:21:00;;;;;;;7.03;1.38;;;17.20;99.90;;;;;;5005682;28;20092;-84
2022/09/13 05:23:27;;;;;;;3.88;1.38;;;16.90;99.90;;;;;;5006352;28;20050;-85
2022/09/13 05:25:58;;;;;;;5.40;1.23;;;16.90;99.90;;;;;;5004084;28;20049;-85
2022/09/13 05:28:25;;;;;;;6.07;1.27;;;16.80;99.90;;;;;;5004467;28;20092;-85
2022/09/13 05:31:06;;;;;;;6.30;2.08;;;17.10;99.90;;;;;;5006076;28;20041;-86
2022/09/13 05:33:35;;;;;;;4.00;1.10;;;16.90;99.90;;;;;;5004156;28;20053;-86
2022/09/13 05:36:01;;;;;;;7.15;1.90;;;17.20;99.90;;;;;;5004478;28;20099;-85
2022/09/13 05:38:27;;;;;;;5.18;1.67;;;17.20;99.90;;;;;;5006793;28;20050;-85
2022/09/13 05:40:57;;;;;;;6.85;1.58;;;17.00;99.90;;;;;;5007740;28;20077;-84
2022/09/13 05:43:28;;;;;;;4.03;1.73;;;17.00;99.90;;;;;;4988854;28;20066;-85
2022/09/13 05:46:06;;;;;;;4.45;1.52;;;17.10;99.90;;;;;;5027986;28;20038;-84
2022/09/13 05:48:33;;;;;;;7.95;1.55;;;17.20;99.90;;;;;;4989890;28;20384;-84
2022/09/13 05:51:11;;;;;;;11.02;2.20;;;16.80;99.90;;;;;;4996933;28;20046;-85
2022/09/13 05:53:43;;;;;;;3.75;1.55;;;17.00;99.90;;;;;;5013789;28;20050;-84
2022/09/13 05:56:11;;;;;;;5.63;1.70;;;17.20;99.90;;;;;;5006061;28;20128;-85
2022/09/13 05:58:42;;;;;;;3.67;1.65;;;16.80;99.90;;;;;;5010753;28;20176;-85
2022/09/13 06:01:09;;;;;;;5.50;1.67;;;17.20;99.90;;;;;;5010458;28;20077;-85
2022/09/13 06:03:35;;;;;;;7.93;1.83;;;17.10;99.90;;;;;;5009116;28;20524;-84
2022/09/13 06:06:02;;;;;;;4.45;1.40;;;17.20;99.90;;;;;;5006795;28;20117;-84
2022/09/13 06:08:30;;;;;;;12.07;2.55;;;17.00;99.90;;;;;;5000448;28;20042;-85
2022/09/13 06:10:57;;;;;;;3.22;1.35;;;16.90;99.90;;;;;;5010734;28;20449;-84
2022/09/13 06:13:24;;;;;;;6.85;1.60;;;16.90;99.90;;;;;;5005103;28;20091;-85
2022/09/13 06:15:51;;;;;;;3.70;1.88;;;17.30;99.90;;;;;;5009840;28;20045;-87
2022/09/13 06:18:17;;;;;;;5.22;1.70;;;17.00;99.90;;;;;;5009007;28;20109;-84
2022/09/13 06:20:43;;;;;;;4.85;1.70;;;17.30;99.90;;;;;;5007657;28;20089;-85
2022/09/13 06:23:08;;;;;;;6.82;2.33;;;17.40;99.90;;;;;;5006468;28;20496;-84
2022/09/13 06:25:34;;;;;;;4.15;1.92;;;17.10;99.90;;;;;;5007555;28;20038;-85
2022/09/13 06:28:00;;;;;;;5.85;1.50;;;17.30;99.90;;;;;;5004974;28;20076;-84
2022/09/13 06:30:25;;;;;;;9.80;1.80;;;17.40;99.90;;;;;;4990831;28;20056;-85
2022/09/13 06:32:51;;;;;;;13.02;2.65;;;17.10;99.90;;;;;;5009392;28;20038;-85
2022/09/13 06:35:17;;;;;;;5.88;1.75;;;17.40;99.90;;;;;;5007747;28;20042;-84
2022/09/13 06:37:42;;;;;;;7.53;2.45;;;17.30;99.90;;;;;;5005875;28;20061;-84
2022/09/13 06:40:09;;;;;;;4.85;1.45;;;17.20;99.90;;;;;;5005731;28;20400;-84
2022/09/13 06:42:35;;;;;;;8.88;2.45;;;17.30;99.90;;;;;;5006874;28;20049;-84
2022/09/13 06:45:01;;;;;;;9.60;1.98;;;17.40;99.90;;;;;;5008212;28;20108;-88
2022/09/13 06:47:27;;;;;;;13.23;2.42;;;17.40;99.90;;;;;;5003745;28;20053;-88
2022/09/13 06:49:53;;;;;;;5.22;2.17;;;17.30;99.90;;;;;;4998952;28;20038;-83
2022/09/13 06:52:19;;;;;;;5.80;2.13;;;17.70;99.90;;;;;;5005008;28;20056;-77
2022/09/13 06:54:44;;;;;;;7.13;1.67;;;17.40;99.90;;;;;;5008298;28;20045;-84
2022/09/13 06:57:10;;;;;;;8.05;2.30;;;17.70;99.90;;;;;;5006383;28;20049;-87
2022/09/13 06:59:36;;;;;;;5.35;1.85;;;17.50;99.90;;;;;;5009867;28;20082;-85
2022/09/13 07:02:01;;;;;;;7.13;1.70;;;17.60;99.90;;;;;;5007135;28;20041;-86
2022/09/13 07:04:30;;;;;;;7.55;1.25;;;17.80;99.90;;;;;;5007812;28;20412;-86
2022/09/13 07:06:57;;;;;;;2.95;1.00;;;17.90;99.90;;;;;;5006606;28;20060;-85
2022/09/13 07:09:22;;;;;;;6.18;1.65;;;17.40;99.90;;;;;;5007341;28;20050;-85
2022/09/13 07:11:50;;;;;;;4.20;1.33;;;17.50;99.90;;;;;;5008912;28;20057;-86
2022/09/13 07:14:18;;;;;;;3.90;1.33;;;17.60;99.90;;;;;;5007669;28;20119;-83
2022/09/13 07:16:45;;;;;;;7.80;0.98;;;17.50;99.90;;;;;;5008375;28;20042;-83
2022/09/13 07:19:14;;;;;;;6.93;1.60;;;17.70;99.90;;;;;;5014524;28;20165;-86
2022/09/13 07:21:40;;;;;;;2.60;0.68;;;17.90;99.90;;;;;;5008802;28;20105;-76
2022/09/13 07:24:06;;;;;;;4.65;1.08;;;17.80;99.90;;;;;;5002860;28;20643;-84
2022/09/13 07:26:32;;;;;;;1.95;0.85;;;17.90;99.90;;;;;;4999248;28;20065;-92
2022/09/13 07:29:00;;;;;;;8.18;1.10;;;18.10;99.90;;;;;;5008260;28;20108;-88
2022/09/13 07:31:29;;;;;;;4.53;1.50;;;18.00;99.90;;;;;;5008183;28;20473;-87
2022/09/13 07:33:57;;;;;;;5.10;0.50;;;18.10;99.90;;;;;;5008809;28;20108;-87
2022/09/13 07:36:23;;;;;;;7.50;0.90;;;18.20;99.90;;;;;;5005548;28;20049;-86
2022/09/13 07:38:49;;;;;;;6.43;0.65;;;18.10;99.90;;;;;;5006583;28;20034;-88
2022/09/13 07:41:17;;;;;;;5.00;0.90;;;18.30;99.90;;;;;;5000125;28;20049;-84
2022/09/13 07:43:43;;;;;;;5.20;0.60;;;18.10;99.90;;;;;;4999750;28;20072;-82
2022/09/13 07:46:11;;;;;;;3.55;0.80;;;17.90;99.90;;;;;;5004369;28;20404;-84
2022/09/13 07:48:40;;;;;;;3.25;1.00;;;17.90;99.90;;;;;;5006285;28;20049;-82
2022/09/13 07:51:08;;;;;;;6.22;1.40;;;18.10;99.90;;;;;;5004985;28;20103;-84
2022/09/13 07:53:36;;;;;;;8.88;1.10;;;18.00;99.90;;;;;;5004285;28;20038;-83
2022/09/13 07:56:10;;;;;;;8.98;2.25;;;18.10;99.90;;;;;;5020206;28;20054;-83
2022/09/13 07:58:38;;;;;;;5.40;0.60;;;18.10;99.90;;;;;;5000840;28;20121;-83
2022/09/13 08:01:11;;;;;;;5.15;0.95;;;18.10;99.90;;;;;;5004951;28;20041;-84
2022/09/13 08:03:37;;;;;;;2.65;0.50;;;18.20;99.90;;;;;;4999398;28;20057;-83
2022/09/13 08:06:04;;;;;;;2.03;0.50;;;18.30;99.90;;;;;;5000036;28;20034;-84
2022/09/13 08:08:30;;;;;;;5.25;0.80;;;18.30;99.90;;;;;;5000222;28;20528;-84
2022/09/13 08:10:56;;;;;;;4.30;1.75;;;18.40;99.90;;;;;;5004625;28;20049;-83
2022/09/13 08:13:23;;;;;;;6.15;0.80;;;18.40;99.90;;;;;;5001787;28;20084;-83
2022/09/13 08:15:49;;;;;;;11.15;0.82;;;18.40;99.90;;;;;;5002434;28;20501;-85
2022/09/13 08:18:18;;;;;;;2.55;0.90;;;18.60;99.90;;;;;;4991683;28;20933;-83
2022/09/13 08:20:44;;;;;;;6.88;0.68;;;18.60;99.90;;;;;;5021826;28;20113;-84
2022/09/13 08:23:11;;;;;;;7.57;1.33;;;18.70;99.90;;;;;;5005912;28;20046;-79
2022/09/13 08:25:37;;;;;;;5.32;1.15;;;18.80;99.90;;;;;;5002947;28;20043;-82
2022/09/13 08:28:08;;;;;;;5.93;1.00;;;18.90;99.90;;;;;;5005422;28;20050;-83
2022/09/13 08:30:36;;;;;;;2.38;0.60;;;18.60;99.90;;;;;;5004760;28;20602;-84
2022/09/13 08:33:05;;;;;;;6.80;1.55;;;18.60;99.90;;;;;;5004939;28;20100;-87
2022/09/13 08:35:31;;;;;;;8.52;1.70;;;18.70;99.90;;;;;;5005829;28;20104;-83
2022/09/13 08:37:57;;;;;;;7.80;0.75;;;18.70;99.90;;;;;;5005326;28;20037;-82
2022/09/13 08:40:27;;;;;;;7.15;0.47;;;19.00;99.90;;;;;;5004536;28;20056;-81
2022/09/13 08:43:21;;;;;;;4.90;1.58;;;18.80;99.90;;;;;;5001780;28;20037;-82
2022/09/13 08:46:01;;;;;;;5.07;0.88;;;19.10;99.90;;;;;;5004701;28;20052;-82
2022/09/13 08:48:38;;;;;;;5.88;0.47;;;18.90;99.90;;;;;;5006498;28;20100;-83
2022/09/13 08:51:12;;;;;;;8.85;0.52;;;18.90;99.90;;;;;;5006691;28;20496;-82
2022/09/13 08:53:48;;;;;;;5.65;1.02;;;18.80;99.90;;;;;;5006210;28;20042;-83
2022/09/13 08:56:40;;;;;;;5.82;0.90;;;18.60;99.90;;;;;;4992917;28;20401;-82
2022/09/13 08:59:33;;;;;;;5.72;1.80;;;18.60;99.90;;;;;;5007540;28;20046;-78
2022/09/13 09:02:28;;;;;;;6.90;0.68;;;18.90;99.90;;;;;;5002707;28;20052;-81
2022/09/13 09:05:15;;;;;;;5.15;0.75;;;19.10;99.90;;;;;;5004168;28;20121;-81
2022/09/13 09:08:13;;;;;;;4.78;1.15;;;19.30;99.90;;;;;;5003063;28;20045;-82
2022/09/13 09:10:43;;;;;;;3.17;0.55;;;19.20;99.90;;;;;;4992447;28;20493;-82
2022/09/13 09:13:51;;;;;;;1.30;0.55;;;19.40;99.90;;;;;;5001776;28;20459;-82
2022/09/13 09:16:40;;;;;;;8.30;2.08;;;19.30;99.90;;;;;;5003992;28;20613;-84
2022/09/13 09:19:17;;;;;;;5.50;0.60;;;19.00;99.90;;;;;;5020045;28;20160;-82
2022/09/13 09:21:45;;;;;;;6.78;1.63;;;18.80;99.90;;;;;;5004207;28;20041;-81
2022/09/13 09:24:24;;;;;;;6.60;0.88;;;19.00;99.90;;;;;;5003329;28;20608;-81
2022/09/13 09:26:56;;;;;;;6.38;0.95;;;19.20;99.90;;;;;;5001510;28;20040;-81
2022/09/13 09:29:24;;;;;;;3.58;0.63;;;19.50;99.90;;;;;;5004220;28;20164;-82
2022/09/13 09:32:27;;;;;;;6.07;0.80;;;19.50;99.90;;;;;;5003883;28;20492;-85
2022/09/13 09:35:04;;;;;;;2.05;0.30;;;19.20;99.90;;;;;;5005863;28;20046;-84
2022/09/13 09:37:31;;;;;;;36.22;2.13;;;18.90;99.90;;;;;;5004915;28;20046;-83
2022/09/13 09:40:01;;;;;;;1.55;0.60;;;18.80;99.90;;;;;;5005383;28;20464;-83
2022/09/13 09:42:29;;;;;;;6.53;1.75;;;19.00;99.90;;;;;;5004100;28;20038;-84
2022/09/13 09:45:16;;;;;;;6.68;1.45;;;19.30;99.90;;;;;;5003219;28;20117;-84
2022/09/13 09:47:46;;;;;;;7.05;1.15;;;19.70;99.90;;;;;;5000786;28;20538;-85
2022/09/13 09:50:18;;;;;;;6.40;1.02;;;19.90;99.90;;;;;;5003769;28;20119;-83
2022/09/13 09:53:05;;;;;;;5.10;0.60;;;19.70;99.90;;;;;;4998477;28;20038;-81
2022/09/13 09:55:53;;;;;;;2.38;0.40;;;19.60;99.90;;;;;;5001921;28;20520;-82
2022/09/13 09:58:37;;;;;;;3.55;0.73;;;19.60;99.90;;;;;;5003845;28;20038;-83
2022/09/13 10:01:04;;;;;;;10.93;0.90;;;19.50;99.90;;;;;;5013413;28;20053;-81
2022/09/13 10:03:32;;;;;;;6.78;1.50;;;19.80;99.90;;;;;;5010789;28;20152;-82
2022/09/13 10:06:18;;;;;;;5.78;1.98;;;20.20;99.90;;;;;;5003908;28;20046;-84
2022/09/13 10:08:55;;;;;;;5.65;1.13;;;20.30;99.90;;;;;;4995138;28;20105;-84
2022/09/13 10:11:21;;;;;;;6.15;1.25;;;20.10;99.90;;;;;;5011160;28;20045;-84
2022/09/13 10:13:59;;;;;;;8.10;1.98;;;19.80;99.90;;;;;;4999620;28;20062;-84
2022/09/13 10:16:27;;;;;;;6.65;0.63;;;19.60;99.90;;;;;;4998201;28;20090;-82
2022/09/13 10:18:52;;;;;;;5.03;0.95;;;19.50;99.90;;;;;;5016411;28;20045;-84
2022/09/13 10:21:18;;;;;;;4.35;0.77;;;19.20;99.90;;;;;;5004663;28;20034;-84
2022/09/13 10:23:49;;;;;;;4.38;1.15;;;19.30;99.90;;;;;;5014089;28;22364;-84
2022/09/13 10:26:23;;;;;;;6.28;1.02;;;19.40;99.90;;;;;;5009382;28;20779;-84
2022/09/13 10:29:09;;;;;;;5.80;1.33;;;19.50;99.90;;;;;;4999673;28;20034;-82
2022/09/13 10:31:37;;;;;;;9.27;1.42;;;19.70;99.90;;;;;;4996410;28;20448;-83
2022/09/13 10:34:35;;;;;;;4.85;0.70;;;19.90;99.90;;;;;;4998919;28;20034;-82
2022/09/13 10:37:11;;;;;;;4.82;0.73;;;20.00;99.90;;;;;;4999215;28;20057;-84
2022/09/13 10:39:56;;;;;;;4.70;0.45;;;20.20;99.90;;;;;;5002218;28;20042;-83
2022/09/13 10:42:26;;;;;;;10.07;2.03;;;20.30;99.90;;;;;;5005214;28;20042;-82
2022/09/13 10:45:18;;;;;;;5.60;0.73;;;20.40;99.90;;;;;;5013513;28;20045;-82
2022/09/13 10:47:47;;;;;;;5.20;1.30;;;20.60;99.90;;;;;;5017136;28;20062;-81
2022/09/13 10:50:18;;;;;;;7.50;1.70;;;20.70;99.90;;;;;;5012205;28;20579;-82
2022/09/13 10:52:47;;;;;;;2.90;0.47;;;20.20;99.90;;;;;;5025785;28;20050;-83
2022/09/13 10:55:19;;;;;;;3.10;0.43;;;20.00;99.90;;;;;;5009910;28;20130;-82
2022/09/13 10:57:46;;;;;;;5.28;1.10;;;19.80;99.90;;;;;;5018488;28;20038;-82
2022/09/13 11:00:16;;;;;;;3.33;0.65;;;19.50;99.90;;;;;;5014264;28;20065;-82
2022/09/13 11:02:54;;;;;;;;;;;19.30;99.90;;;;;;5013209;28;20127;-82
2022/09/13 11:05:45;;;;;;;2.47;0.77;;;19.70;99.90;;;;;;5008611;28;19929;-82
2022/09/13 11:08:36;;;;;;;3.80;0.60;;;20.00;99.90;;;;;;5008461;28;20109;-83
2022/09/13 11:11:22;;;;;;;5.57;0.57;;;20.30;99.90;;;;;;5007485;28;20058;-83
2022/09/13 11:14:25;;;;;;;2.63;0.75;;;20.70;99.90;;;;;;4999622;28;20041;-82
2022/09/13 11:17:02;;;;;;;5.85;1.08;;;20.90;99.90;;;;;;5005821;28;20038;-82
2022/09/13 11:19:34;;;;;;;8.30;1.13;;;20.80;99.90;;;;;;5007424;28;20111;-83
2022/09/13 11:22:14;;;;;;;8.80;1.67;;;20.80;99.90;;;;;;5004970;28;20042;-81
2022/09/13 11:25:02;;;;;;;4.18;0.50;;;20.70;99.90;;;;;;5008527;28;20052;-81
2022/09/13 11:28:12;;;;;;;3.40;0.70;;;20.50;99.90;;;;;;5004262;28;20042;-85
2022/09/13 11:31:07;;;;;;;2.35;1.02;;;20.60;99.90;;;;;;4999703;28;20048;-83
2022/09/13 11:33:51;;;;;;;4.57;1.17;;;20.50;99.90;;;;;;4988791;28;20050;-84
2022/09/13 11:36:39;;;;;;;3.40;0.50;;;20.80;99.90;;;;;;4999381;28;20048;-84
2022/09/13 11:39:22;;;;;;;8.18;1.13;;;21.00;99.90;;;;;;5007166;28;20077;-83
2022/09/13 11:41:58;;;;;;;4.38;0.88;;;20.70;99.90;;;;;;5004303;28;20611;-84
2022/09/13 11:44:43;;;;;;;7.43;1.13;;;20.20;99.90;;;;;;5022022;28;20081;-84
2022/09/13 11:47:30;;;;;;;5.18;0.82;;;20.30;99.90;;;;;;5006114;28;20081;-83
2022/09/13 11:50:27;;;;;;;2.00;0.52;;;20.40;99.90;;;;;;5007424;28;20100;-84
2022/09/13 11:53:19;;;;;;;1.77;0.60;;;20.60;99.90;;;;;;5009101;28;20050;-83
2022/09/13 11:55:50;;;;;;;3.22;0.98;;;20.30;99.90;;;;;;5002253;28;20069;-81
2022/09/13 11:58:30;;;;;;;6.20;0.60;;;20.10;99.90;;;;;;5011622;28;20041;-80
2022/09/13 12:01:07;;;;;;;4.25;0.68;;;20.00;99.90;;;;;;5010028;28;20038;-81
2022/09/13 12:04:02;;;;;;;4.32;0.93;;;20.20;99.90;;;;;;5001111;28;20053;-81
2022/09/13 12:06:34;;;;;;;5.95;1.05;;;20.30;99.90;;;;;;4991506;28;20052;-82
2022/09/13 12:09:14;;;;;;;3.22;0.77;;;20.20;99.90;;;;;;5008538;28;20052;-81
2022/09/13 12:11:48;;;;;;;7.05;1.00;;;20.00;99.90;;;;;;4989225;28;20073;-80
2022/09/13 12:14:22;;;;;;;6.65;0.93;;;20.00;99.90;;;;;;5017712;28;20461;-80
2022/09/13 12:16:51;;;;;;;6.68;1.20;;;20.20;99.90;;;;;;5008633;28;20048;-81
2022/09/13 12:19:45;;;;;;;6.47;1.40;;;20.40;99.90;;;;;;5007263;28;20172;-81
2022/09/13 12:22:13;;;;;;;3.10;0.50;;;20.50;99.90;;;;;;4998212;28;20077;-80
2022/09/13 12:24:50;;;;;;;7.22;0.70;;;20.50;99.90;;;;;;4997346;28;20093;-84
2022/09/13 12:27:38;;;;;;;4.20;1.40;;;20.40;99.90;;;;;;5003837;28;20141;-81
2022/09/13 12:30:20;;;;;;;7.15;1.10;;;20.30;99.90;;;;;;5020668;28;20069;-83
2022/09/13 12:32:47;;;;;;;3.65;1.05;;;20.10;99.90;;;;;;5005622;28;20052;-83
2022/09/13 12:35:42;;;;;;;3.30;0.70;;;19.80;99.90;;;;;;5004472;28;20038;-82
2022/09/13 12:38:29;;;;;;;8.38;1.60;;;20.00;99.90;;;;;;5006507;28;20080;-82
2022/09/13 12:41:20;;;;;;;8.85;2.38;;;20.00;99.90;;;;;;5012958;28;20042;-81
2022/09/13 12:44:01;;;;;;;6.53;1.52;;;19.80;99.90;;;;;;5009043;28;20030;-78
2022/09/13 12:46:47;;;;;;;7.57;2.15;;;19.70;99.90;;;;;;4998962;28;20054;-81
2022/09/13 12:49:35;;;;;;;6.82;1.63;;;19.90;99.90;;;;;;4997015;28;20054;-79
2022/09/13 12:52:27;;;;;;;4.65;1.33;;;20.10;99.90;;;;;;5005362;28;20535;-80
2022/09/13 12:55:14;;;;;;;8.88;2.00;;;20.20;99.90;;;;;;5003609;28;20041;-82
2022/09/13 12:57:44;;;;;;;5.55;1.85;;;20.40;99.90;;;;;;5000906;28;20523;-82
2022/09/13 13:00:31;;;;;;;4.53;0.60;;;20.40;99.90;;;;;;5022432;28;20084;-82
2022/09/13 13:03:12;;;;;;;7.97;1.30;;;20.50;99.90;;;;;;5001819;28;20390;-82
2022/09/13 13:05:48;;;;;;;7.90;1.92;;;20.30;99.90;;;;;;5005274;28;20068;-82
2022/09/13 13:08:19;;;;;;;22.00;1.73;;;20.10;99.90;;;;;;5004518;28;20136;-82
2022/09/13 13:11:02;;;;;;;5.30;1.15;;;20.20;99.90;;;;;;5005602;28;20050;-82
2022/09/13 13:13:33;;;;;;;5.53;1.27;;;20.00;99.90;;;;;;4996457;28;20050;-82
2022/09/13 13:16:03;;;;;;;3.80;1.05;;;19.80;99.90;;;;;;4992252;28;20109;-83